sensor_id;sensor_type;location;lat;lon;timestamp;temperature;humidity
35043;DHT22;21230;51.170;17.024;2023-02-11T00:00:05;1.00;99.90
35043;DHT22;21230;51.170;17.024;2023-02-11T00:02:31;1.00;99.90
35043;DHT22;21230;51.170;17.024;2023-02-11T00:04:57;1.00;99.90
35043;DHT22;21230;51.170;17.024;2023-02-11T00:07:27;1.10;99.90
35043;DHT22;21230;51.170;17.024;2023-02-11T00:09:53;1.10;99.90
35043;DHT22;21230;51.170;17.024;2023-02-11T00:12:18;1.20;99.90
35043;DHT22;21230;51.170;17.024;2023-02-11T00:14:44;1.20;99.90
35043;DHT22;21230;51.170;17.024;2023-02-11T00:17:10;1.20;99.90
35043;DHT22;21230;51.170;17.024;2023-02-11T00:19:35;1.30;99.90
35043;DHT22;21230;51.170;17.024;2023-02-11T00:22:01;1.30;99.90
35043;DHT22;21230;51.170;17.024;2023-02-11T00:24:26;1.20;99.90
35043;DHT22;21230;51.170;17.024;2023-02-11T00:26:54;1.30;99.90
35043;DHT22;21230;51.170;17.024;2023-02-11T00:29:20;1.30;99.90
35043;DHT22;21230;51.170;17.024;2023-02-11T00:31:45;1.30;99.90
35043;DHT22;21230;51.170;17.024;2023-02-11T00:34:11;1.20;99.90
35043;DHT22;21230;51.170;17.024;2023-02-11T00:36:37;1.20;99.90
35043;DHT22;21230;51.170;17.024;2023-02-11T00:39:03;1.10;99.90
35043;DHT22;21230;51.170;17.024;2023-02-11T00:41:29;1.20;99.90
35043;DHT22;21230;51.170;17.024;2023-02-11T00:43:54;1.20;99.90
35043;DHT22;21230;51.170;17.024;2023-02-11T00:46:20;1.10;99.90
35043;DHT22;21230;51.170;17.024;2023-02-11T00:48:46;1.20;99.90
35043;DHT22;21230;51.170;17.024;2023-02-11T00:51:11;1.20;99.90
35043;DHT22;21230;51.170;17.024;2023-02-11T00:53:37;1.20;99.90
35043;DHT22;21230;51.170;17.024;2023-02-11T00:56:03;1.20;99.90
35043;DHT22;21230;51.170;17.024;2023-02-11T00:58:28;1.20;99.90
35043;DHT22;21230;51.170;17.024;2023-02-11T01:00:54;1.10;99.90
35043;DHT22;21230;51.170;17.024;2023-02-11T01:03:20;1.10;99.90
35043;DHT22;21230;51.170;17.024;2023-02-11T01:05:45;1.10;99.90
35043;DHT22;21230;51.170;17.024;2023-02-11T01:08:11;1.10;99.90
35043;DHT22;21230;51.170;17.024;2023-02-11T01:10:37;1.20;99.90
35043;DHT22;21230;51.170;17.024;2023-02-11T01:13:02;1.20;99.90
35043;DHT22;21230;51.170;17.024;2023-02-11T01:15:28;1.20;99.90
35043;DHT22;21230;51.170;17.024;2023-02-11T01:17:54;1.10;99.90
35043;DHT22;21230;51.170;17.024;2023-02-11T01:20:22;1.10;99.90
35043;DHT22;21230;51.170;17.024;2023-02-11T01:22:48;1.10;99.90
35043;DHT22;21230;51.170;17.024;2023-02-11T01:25:13;1.00;99.90
35043;DHT22;21230;51.170;17.024;2023-02-11T01:27:39;1.00;99.90
35043;DHT22;21230;51.170;17.024;2023-02-11T01:30:05;1.00;99.90
35043;DHT22;21230;51.170;17.024;2023-02-11T01:32:32;1.00;99.90
35043;DHT22;21230;51.170;17.024;2023-02-11T01:34:57;0.90;99.90
35043;DHT22;21230;51.170;17.024;2023-02-11T01:37:23;1.00;99.90
35043;DHT22;21230;51.170;17.024;2023-02-11T01:39:48;1.00;99.90
35043;DHT22;21230;51.170;17.024;2023-02-11T01:42:15;1.00;99.90
35043;DHT22;21230;51.170;17.024;2023-02-11T01:44:41;1.00;99.90
35043;DHT22;21230;51.170;17.024;2023-02-11T01:47:06;1.00;99.90
35043;DHT22;21230;51.170;17.024;2023-02-11T01:49:33;1.00;99.90
35043;DHT22;21230;51.170;17.024;2023-02-11T01:52:11;1.10;99.90
35043;DHT22;21230;51.170;17.024;2023-02-11T01:55:01;1.10;99.90
35043;DHT22;21230;51.170;17.024;2023-02-11T01:57:44;1.20;99.90
35043;DHT22;21230;51.170;17.024;2023-02-11T02:00:18;1.20;99.90
35043;DHT22;21230;51.170;17.024;2023-02-11T02:03:00;1.20;99.90
35043;DHT22;21230;51.170;17.024;2023-02-11T02:10:40;1.30;99.90
35043;DHT22;21230;51.170;17.024;2023-02-11T02:13:05;1.30;99.90
35043;DHT22;21230;51.170;17.024;2023-02-11T02:15:32;1.30;99.90
35043;DHT22;21230;51.170;17.024;2023-02-11T02:33:36;1.50;99.90
35043;DHT22;21230;51.170;17.024;2023-02-11T02:38:39;1.60;99.90
35043;DHT22;21230;51.170;17.024;2023-02-11T02:41:12;1.60;99.90
35043;DHT22;21230;51.170;17.024;2023-02-11T02:43:41;1.60;99.90
35043;DHT22;21230;51.170;17.024;2023-02-11T02:46:11;1.60;99.90
35043;DHT22;21230;51.170;17.024;2023-02-11T02:48:37;1.60;99.90
35043;DHT22;21230;51.170;17.024;2023-02-11T02:54:07;1.60;99.90
35043;DHT22;21230;51.170;17.024;2023-02-11T03:02:11;1.60;99.90
35043;DHT22;21230;51.170;17.024;2023-02-11T03:04:42;1.60;99.90
35043;DHT22;21230;51.170;17.024;2023-02-11T03:07:11;1.50;99.90
35043;DHT22;21230;51.170;17.024;2023-02-11T03:09:46;1.60;99.90
35043;DHT22;21230;51.170;17.024;2023-02-11T03:12:12;1.60;99.90
35043;DHT22;21230;51.170;17.024;2023-02-11T03:14:39;1.60;99.90
35043;DHT22;21230;51.170;17.024;2023-02-11T03:17:05;1.60;99.90
35043;DHT22;21230;51.170;17.024;2023-02-11T03:19:34;1.70;99.90
35043;DHT22;21230;51.170;17.024;2023-02-11T03:22:02;1.60;99.90
35043;DHT22;21230;51.170;17.024;2023-02-11T03:24:33;1.60;99.90
35043;DHT22;21230;51.170;17.024;2023-02-11T03:27:14;1.60;99.90
35043;DHT22;21230;51.170;17.024;2023-02-11T03:29:45;1.60;99.90
35043;DHT22;21230;51.170;17.024;2023-02-11T03:32:18;1.60;99.90
35043;DHT22;21230;51.170;17.024;2023-02-11T03:34:57;1.60;99.90
35043;DHT22;21230;51.170;17.024;2023-02-11T03:37:31;1.60;99.90
35043;DHT22;21230;51.170;17.024;2023-02-11T03:40:04;1.60;99.90
35043;DHT22;21230;51.170;17.024;2023-02-11T03:42:31;1.70;99.90
35043;DHT22;21230;51.170;17.024;2023-02-11T03:45:10;1.70;99.90
35043;DHT22;21230;51.170;17.024;2023-02-11T03:47:37;1.70;99.90
35043;DHT22;21230;51.170;17.024;2023-02-11T03:50:05;1.70;99.90
35043;DHT22;21230;51.170;17.024;2023-02-11T03:52:32;1.70;99.90
35043;DHT22;21230;51.170;17.024;2023-02-11T03:54:59;1.70;99.90
35043;DHT22;21230;51.170;17.024;2023-02-11T03:57:26;1.60;99.90
35043;DHT22;21230;51.170;17.024;2023-02-11T03:59:53;1.70;99.90
35043;DHT22;21230;51.170;17.024;2023-02-11T04:02:20;1.70;99.90
35043;DHT22;21230;51.170;17.024;2023-02-11T04:04:45;1.70;99.90
35043;DHT22;21230;51.170;17.024;2023-02-11T04:07:11;1.70;99.90
35043;DHT22;21230;51.170;17.024;2023-02-11T04:09:37;1.70;99.90
35043;DHT22;21230;51.170;17.024;2023-02-11T04:12:03;1.80;99.90
35043;DHT22;21230;51.170;17.024;2023-02-11T04:14:28;1.70;99.90
35043;DHT22;21230;51.170;17.024;2023-02-11T04:16:54;1.70;99.90
35043;DHT22;21230;51.170;17.024;2023-02-11T04:19:19;1.70;99.90
35043;DHT22;21230;51.170;17.024;2023-02-11T04:21:45;1.70;99.90
35043;DHT22;21230;51.170;17.024;2023-02-11T04:24:11;1.80;99.90
35043;DHT22;21230;51.170;17.024;2023-02-11T04:26:37;1.70;99.90
35043;DHT22;21230;51.170;17.024;2023-02-11T04:29:02;1.70;99.90
35043;DHT22;21230;51.170;17.024;2023-02-11T04:31:28;1.70;99.90
35043;DHT22;21230;51.170;17.024;2023-02-11T04:33:53;1.80;99.90
35043;DHT22;21230;51.170;17.024;2023-02-11T04:36:19;1.80;99.90
35043;DHT22;21230;51.170;17.024;2023-02-11T04:38:45;1.70;99.90
35043;DHT22;21230;51.170;17.024;2023-02-11T04:41:10;1.70;99.90
35043;DHT22;21230;51.170;17.024;2023-02-11T04:43:36;1.70;99.90
35043;DHT22;21230;51.170;17.024;2023-02-11T04:46:01;1.70;99.90
35043;DHT22;21230;51.170;17.024;2023-02-11T04:48:27;1.70;99.90
35043;DHT22;21230;51.170;17.024;2023-02-11T04:50:53;1.70;99.90
35043;DHT22;21230;51.170;17.024;2023-02-11T04:53:18;1.70;99.90
35043;DHT22;21230;51.170;17.024;2023-02-11T04:55:44;1.70;99.90
35043;DHT22;21230;51.170;17.024;2023-02-11T04:58:12;1.70;99.90
35043;DHT22;21230;51.170;17.024;2023-02-11T05:00:38;1.70;99.90
35043;DHT22;21230;51.170;17.024;2023-02-11T05:03:03;1.70;99.90
35043;DHT22;21230;51.170;17.024;2023-02-11T05:05:29;1.70;99.90
35043;DHT22;21230;51.170;17.024;2023-02-11T05:07:55;1.70;99.90
35043;DHT22;21230;51.170;17.024;2023-02-11T05:10:21;1.80;99.90
35043;DHT22;21230;51.170;17.024;2023-02-11T05:12:47;1.80;99.90
35043;DHT22;21230;51.170;17.024;2023-02-11T05:15:13;1.80;99.90
35043;DHT22;21230;51.170;17.024;2023-02-11T05:17:39;1.80;99.90
35043;DHT22;21230;51.170;17.024;2023-02-11T05:20:05;1.80;99.90
35043;DHT22;21230;51.170;17.024;2023-02-11T05:22:31;1.80;99.90
35043;DHT22;21230;51.170;17.024;2023-02-11T05:24:56;1.80;99.90
35043;DHT22;21230;51.170;17.024;2023-02-11T05:27:22;1.80;99.90
35043;DHT22;21230;51.170;17.024;2023-02-11T05:29:47;1.70;99.90
35043;DHT22;21230;51.170;17.024;2023-02-11T05:32:13;1.80;99.90
35043;DHT22;21230;51.170;17.024;2023-02-11T05:34:39;1.80;99.90
35043;DHT22;21230;51.170;17.024;2023-02-11T05:37:04;1.80;99.90
35043;DHT22;21230;51.170;17.024;2023-02-11T05:39:30;1.80;99.90
35043;DHT22;21230;51.170;17.024;2023-02-11T05:41:56;1.80;99.90
35043;DHT22;21230;51.170;17.024;2023-02-11T05:44:21;1.80;99.90
35043;DHT22;21230;51.170;17.024;2023-02-11T05:46:47;1.80;99.90
35043;DHT22;21230;51.170;17.024;2023-02-11T05:49:13;1.80;99.90
35043;DHT22;21230;51.170;17.024;2023-02-11T05:51:40;1.80;99.90
35043;DHT22;21230;51.170;17.024;2023-02-11T05:54:06;1.80;99.90
35043;DHT22;21230;51.170;17.024;2023-02-11T05:56:31;1.80;99.90
35043;DHT22;21230;51.170;17.024;2023-02-11T05:58:57;1.90;99.90
35043;DHT22;21230;51.170;17.024;2023-02-11T06:01:24;1.80;99.90
35043;DHT22;21230;51.170;17.024;2023-02-11T06:03:50;1.90;99.90
35043;DHT22;21230;51.170;17.024;2023-02-11T06:06:15;1.90;99.90
35043;DHT22;21230;51.170;17.024;2023-02-11T06:08:41;2.00;99.90
35043;DHT22;21230;51.170;17.024;2023-02-11T06:11:07;2.00;99.90
35043;DHT22;21230;51.170;17.024;2023-02-11T06:13:33;2.00;99.90
35043;DHT22;21230;51.170;17.024;2023-02-11T06:15:59;1.90;99.90
35043;DHT22;21230;51.170;17.024;2023-02-11T06:18:25;2.00;99.90
35043;DHT22;21230;51.170;17.024;2023-02-11T06:20:51;2.00;99.90
35043;DHT22;21230;51.170;17.024;2023-02-11T06:23:17;2.00;99.90
35043;DHT22;21230;51.170;17.024;2023-02-11T06:25:42;2.10;99.90
35043;DHT22;21230;51.170;17.024;2023-02-11T06:28:08;2.10;99.90
35043;DHT22;21230;51.170;17.024;2023-02-11T06:30:35;2.10;99.90
35043;DHT22;21230;51.170;17.024;2023-02-11T06:33:01;2.20;99.90
35043;DHT22;21230;51.170;17.024;2023-02-11T06:35:27;2.20;99.90
35043;DHT22;21230;51.170;17.024;2023-02-11T06:37:53;2.30;99.90
35043;DHT22;21230;51.170;17.024;2023-02-11T06:40:19;2.30;99.90
35043;DHT22;21230;51.170;17.024;2023-02-11T06:42:45;2.30;99.90
35043;DHT22;21230;51.170;17.024;2023-02-11T06:45:10;2.20;99.90
35043;DHT22;21230;51.170;17.024;2023-02-11T06:47:38;2.30;99.90
35043;DHT22;21230;51.170;17.024;2023-02-11T06:50:05;2.30;99.90
35043;DHT22;21230;51.170;17.024;2023-02-11T06:52:32;2.30;99.90
35043;DHT22;21230;51.170;17.024;2023-02-11T06:54:57;2.40;99.90
35043;DHT22;21230;51.170;17.024;2023-02-11T06:57:23;2.40;99.90
35043;DHT22;21230;51.170;17.024;2023-02-11T06:59:49;2.40;99.90
35043;DHT22;21230;51.170;17.024;2023-02-11T07:02:14;2.40;99.90
35043;DHT22;21230;51.170;17.024;2023-02-11T07:04:40;2.40;99.90
35043;DHT22;21230;51.170;17.024;2023-02-11T07:07:05;2.50;99.90
35043;DHT22;21230;51.170;17.024;2023-02-11T07:09:31;2.50;99.90
35043;DHT22;21230;51.170;17.024;2023-02-11T07:11:57;2.60;99.90
35043;DHT22;21230;51.170;17.024;2023-02-11T07:14:22;2.50;99.90
35043;DHT22;21230;51.170;17.024;2023-02-11T07:16:48;2.60;99.90
35043;DHT22;21230;51.170;17.024;2023-02-11T07:19:14;2.60;99.90
35043;DHT22;21230;51.170;17.024;2023-02-11T07:21:40;2.60;99.90
35043;DHT22;21230;51.170;17.024;2023-02-11T07:24:06;2.60;99.90
35043;DHT22;21230;51.170;17.024;2023-02-11T07:26:32;2.60;99.90
35043;DHT22;21230;51.170;17.024;2023-02-11T07:28:58;2.60;99.90
35043;DHT22;21230;51.170;17.024;2023-02-11T07:31:24;2.60;99.90
35043;DHT22;21230;51.170;17.024;2023-02-11T07:33:51;2.60;99.90
35043;DHT22;21230;51.170;17.024;2023-02-11T07:36:17;2.70;99.90
35043;DHT22;21230;51.170;17.024;2023-02-11T07:38:43;2.70;99.90
35043;DHT22;21230;51.170;17.024;2023-02-11T07:41:09;2.70;99.90
35043;DHT22;21230;51.170;17.024;2023-02-11T07:43:36;2.80;99.90
35043;DHT22;21230;51.170;17.024;2023-02-11T07:46:05;2.80;99.90
35043;DHT22;21230;51.170;17.024;2023-02-11T07:48:31;2.90;99.90
35043;DHT22;21230;51.170;17.024;2023-02-11T07:51:11;2.90;99.90
35043;DHT22;21230;51.170;17.024;2023-02-11T07:53:37;2.90;99.90
35043;DHT22;21230;51.170;17.024;2023-02-11T07:56:03;3.10;99.90
35043;DHT22;21230;51.170;17.024;2023-02-11T07:58:30;3.20;99.90
35043;DHT22;21230;51.170;17.024;2023-02-11T08:01:03;3.40;99.90
35043;DHT22;21230;51.170;17.024;2023-02-11T08:03:29;3.50;99.90
35043;DHT22;21230;51.170;17.024;2023-02-11T08:05:55;3.60;99.90
35043;DHT22;21230;51.170;17.024;2023-02-11T08:08:21;3.70;99.90
35043;DHT22;21230;51.170;17.024;2023-02-11T08:10:46;3.70;99.90
35043;DHT22;21230;51.170;17.024;2023-02-11T08:13:12;3.80;99.90
35043;DHT22;21230;51.170;17.024;2023-02-11T08:15:37;3.80;99.90
35043;DHT22;21230;51.170;17.024;2023-02-11T08:18:03;3.80;99.90
35043;DHT22;21230;51.170;17.024;2023-02-11T08:20:29;3.90;99.90
35043;DHT22;21230;51.170;17.024;2023-02-11T08:22:54;3.90;99.90
35043;DHT22;21230;51.170;17.024;2023-02-11T08:25:20;3.90;99.90
35043;DHT22;21230;51.170;17.024;2023-02-11T08:27:45;3.90;99.90
35043;DHT22;21230;51.170;17.024;2023-02-11T08:30:11;3.90;99.90
35043;DHT22;21230;51.170;17.024;2023-02-11T08:32:37;3.90;99.90
35043;DHT22;21230;51.170;17.024;2023-02-11T08:35:04;3.90;99.90
35043;DHT22;21230;51.170;17.024;2023-02-11T08:37:32;3.90;99.90
35043;DHT22;21230;51.170;17.024;2023-02-11T08:39:57;4.00;99.90
35043;DHT22;21230;51.170;17.024;2023-02-11T08:42:23;4.00;99.90
35043;DHT22;21230;51.170;17.024;2023-02-11T08:44:49;4.00;99.90
35043;DHT22;21230;51.170;17.024;2023-02-11T08:47:14;3.90;99.90
35043;DHT22;21230;51.170;17.024;2023-02-11T08:49:40;3.90;99.90
35043;DHT22;21230;51.170;17.024;2023-02-11T08:52:07;3.90;99.90
35043;DHT22;21230;51.170;17.024;2023-02-11T08:54:33;3.90;99.90
35043;DHT22;21230;51.170;17.024;2023-02-11T08:57:00;3.90;99.90
35043;DHT22;21230;51.170;17.024;2023-02-11T08:59:26;3.90;99.90
35043;DHT22;21230;51.170;17.024;2023-02-11T09:01:52;3.90;99.90
35043;DHT22;21230;51.170;17.024;2023-02-11T09:04:18;3.90;99.90
35043;DHT22;21230;51.170;17.024;2023-02-11T09:06:44;4.00;99.90
35043;DHT22;21230;51.170;17.024;2023-02-11T09:09:11;4.00;99.90
35043;DHT22;21230;51.170;17.024;2023-02-11T09:11:38;4.10;99.90
35043;DHT22;21230;51.170;17.024;2023-02-11T09:14:06;4.10;99.90
35043;DHT22;21230;51.170;17.024;2023-02-11T09:16:33;4.10;99.90
35043;DHT22;21230;51.170;17.024;2023-02-11T09:19:00;4.20;99.90
35043;DHT22;21230;51.170;17.024;2023-02-11T09:21:26;4.20;99.90
35043;DHT22;21230;51.170;17.024;2023-02-11T09:23:52;4.30;99.90
35043;DHT22;21230;51.170;17.024;2023-02-11T09:26:20;4.30;99.90
35043;DHT22;21230;51.170;17.024;2023-02-11T09:28:46;4.40;99.90
35043;DHT22;21230;51.170;17.024;2023-02-11T09:31:13;4.40;99.90
35043;DHT22;21230;51.170;17.024;2023-02-11T09:33:40;4.40;99.90
35043;DHT22;21230;51.170;17.024;2023-02-11T09:36:16;4.50;99.90
35043;DHT22;21230;51.170;17.024;2023-02-11T09:38:42;4.50;99.90
35043;DHT22;21230;51.170;17.024;2023-02-11T09:41:53;4.50;99.90
35043;DHT22;21230;51.170;17.024;2023-02-11T09:44:01;4.50;99.90
35043;DHT22;21230;51.170;17.024;2023-02-11T09:46:30;4.50;99.90
35043;DHT22;21230;51.170;17.024;2023-02-11T09:48:57;4.60;99.90
35043;DHT22;21230;51.170;17.024;2023-02-11T09:51:28;4.60;99.90
35043;DHT22;21230;51.170;17.024;2023-02-11T09:54:00;4.70;99.90
35043;DHT22;21230;51.170;17.024;2023-02-11T09:56:28;4.80;99.90
35043;DHT22;21230;51.170;17.024;2023-02-11T09:58:54;4.80;99.90
35043;DHT22;21230;51.170;17.024;2023-02-11T10:03:58;4.90;99.90
35043;DHT22;21230;51.170;17.024;2023-02-11T10:06:35;4.90;99.90
35043;DHT22;21230;51.170;17.024;2023-02-11T10:22:46;5.00;99.90
35043;DHT22;21230;51.170;17.024;2023-02-11T10:27:55;5.00;99.90
35043;DHT22;21230;51.170;17.024;2023-02-11T10:30:42;5.10;99.90
35043;DHT22;21230;51.170;17.024;2023-02-11T10:33:40;5.10;99.90
35043;DHT22;21230;51.170;17.024;2023-02-11T10:36:11;5.10;99.90
35043;DHT22;21230;51.170;17.024;2023-02-11T10:38:40;5.20;99.90
35043;DHT22;21230;51.170;17.024;2023-02-11T10:41:21;5.20;99.90
35043;DHT22;21230;51.170;17.024;2023-02-11T10:43:51;5.20;99.90
35043;DHT22;21230;51.170;17.024;2023-02-11T10:46:22;5.20;99.90
35043;DHT22;21230;51.170;17.024;2023-02-11T10:48:53;5.30;99.90
35043;DHT22;21230;51.170;17.024;2023-02-11T10:51:43;5.20;99.90
35043;DHT22;21230;51.170;17.024;2023-02-11T10:57:00;5.30;99.90
35043;DHT22;21230;51.170;17.024;2023-02-11T10:59:41;5.30;99.90
35043;DHT22;21230;51.170;17.024;2023-02-11T11:02:32;5.30;99.90
35043;DHT22;21230;51.170;17.024;2023-02-11T11:05:16;5.30;99.90
35043;DHT22;21230;51.170;17.024;2023-02-11T11:08:04;5.30;99.90
35043;DHT22;21230;51.170;17.024;2023-02-11T11:13:31;5.20;99.90
35043;DHT22;21230;51.170;17.024;2023-02-11T11:16:55;5.30;99.90
35043;DHT22;21230;51.170;17.024;2023-02-11T11:21:49;5.30;99.90
35043;DHT22;21230;51.170;17.024;2023-02-11T11:24:39;5.30;99.90
35043;DHT22;21230;51.170;17.024;2023-02-11T11:27:17;5.40;99.90
35043;DHT22;21230;51.170;17.024;2023-02-11T11:29:49;5.40;99.90
35043;DHT22;21230;51.170;17.024;2023-02-11T11:32:29;5.50;99.90
35043;DHT22;21230;51.170;17.024;2023-02-11T11:35:03;5.50;99.90
35043;DHT22;21230;51.170;17.024;2023-02-11T11:37:31;5.50;99.90
35043;DHT22;21230;51.170;17.024;2023-02-11T11:40:25;5.60;99.90
35043;DHT22;21230;51.170;17.024;2023-02-11T11:45:31;5.60;99.90
35043;DHT22;21230;51.170;17.024;2023-02-11T11:48:11;5.60;99.90
35043;DHT22;21230;51.170;17.024;2023-02-11T11:50:51;5.60;99.90
35043;DHT22;21230;51.170;17.024;2023-02-11T11:53:59;5.60;99.90
35043;DHT22;21230;51.170;17.024;2023-02-11T11:56:32;5.60;99.90
35043;DHT22;21230;51.170;17.024;2023-02-11T11:59:01;5.60;99.90
35043;DHT22;21230;51.170;17.024;2023-02-11T12:07:18;5.50;99.90
35043;DHT22;21230;51.170;17.024;2023-02-11T12:12:50;5.50;99.90
35043;DHT22;21230;51.170;17.024;2023-02-11T12:21:14;5.40;99.90
35043;DHT22;21230;51.170;17.024;2023-02-11T12:26:55;5.40;99.90
35043;DHT22;21230;51.170;17.024;2023-02-11T12:30:15;5.40;99.90
35043;DHT22;21230;51.170;17.024;2023-02-11T12:37:41;5.50;99.90
35043;DHT22;21230;51.170;17.024;2023-02-11T12:43:38;5.50;99.90
35043;DHT22;21230;51.170;17.024;2023-02-11T12:49:06;5.60;99.90
35043;DHT22;21230;51.170;17.024;2023-02-11T13:01:59;5.60;99.90
35043;DHT22;21230;51.170;17.024;2023-02-11T13:04:36;5.60;99.90
35043;DHT22;21230;51.170;17.024;2023-02-11T13:07:38;5.60;99.90
35043;DHT22;21230;51.170;17.024;2023-02-11T13:12:50;5.60;99.90
35043;DHT22;21230;51.170;17.024;2023-02-11T13:15:36;5.60;99.90
35043;DHT22;21230;51.170;17.024;2023-02-11T13:18:30;5.60;99.90
35043;DHT22;21230;51.170;17.024;2023-02-11T13:26:40;5.70;99.90
35043;DHT22;21230;51.170;17.024;2023-02-11T13:31:51;5.70;99.90
35043;DHT22;21230;51.170;17.024;2023-02-11T13:37:21;5.60;99.90
35043;DHT22;21230;51.170;17.024;2023-02-11T13:42:23;5.60;99.90
35043;DHT22;21230;51.170;17.024;2023-02-11T13:44:49;5.60;99.90
35043;DHT22;21230;51.170;17.024;2023-02-11T13:47:31;5.60;99.90
35043;DHT22;21230;51.170;17.024;2023-02-11T13:50:00;5.60;99.90
35043;DHT22;21230;51.170;17.024;2023-02-11T13:52:41;5.70;99.90
35043;DHT22;21230;51.170;17.024;2023-02-11T14:02:33;5.60;99.90
35043;DHT22;21230;51.170;17.024;2023-02-11T14:05:29;5.60;99.90
35043;DHT22;21230;51.170;17.024;2023-02-11T14:08:17;5.60;99.90
35043;DHT22;21230;51.170;17.024;2023-02-11T14:16:26;5.60;99.90
35043;DHT22;21230;51.170;17.024;2023-02-11T14:26:55;5.50;99.90
35043;DHT22;21230;51.170;17.024;2023-02-11T14:32:24;5.50;99.90
35043;DHT22;21230;51.170;17.024;2023-02-11T14:38:01;5.40;99.90
35043;DHT22;21230;51.170;17.024;2023-02-11T14:40:37;5.40;99.90
35043;DHT22;21230;51.170;17.024;2023-02-11T14:43:17;5.40;99.90
35043;DHT22;21230;51.170;17.024;2023-02-11T14:45:49;5.40;99.90
35043;DHT22;21230;51.170;17.024;2023-02-11T14:48:17;5.30;99.90
35043;DHT22;21230;51.170;17.024;2023-02-11T14:50:48;5.30;99.90
35043;DHT22;21230;51.170;17.024;2023-02-11T14:53:20;5.20;99.90
35043;DHT22;21230;51.170;17.024;2023-02-11T14:55:49;5.20;99.90
35043;DHT22;21230;51.170;17.024;2023-02-11T14:58:28;5.20;99.90
35043;DHT22;21230;51.170;17.024;2023-02-11T15:00:58;5.20;99.90
35043;DHT22;21230;51.170;17.024;2023-02-11T15:03:25;5.10;99.90
35043;DHT22;21230;51.170;17.024;2023-02-11T15:06:00;5.00;99.90
35043;DHT22;21230;51.170;17.024;2023-02-11T15:08:28;5.00;99.90
35043;DHT22;21230;51.170;17.024;2023-02-11T15:10:56;5.00;99.90
35043;DHT22;21230;51.170;17.024;2023-02-11T15:13:25;4.90;99.90
35043;DHT22;21230;51.170;17.024;2023-02-11T15:16:19;4.90;99.90
35043;DHT22;21230;51.170;17.024;2023-02-11T15:18:52;4.90;99.90
35043;DHT22;21230;51.170;17.024;2023-02-11T15:21:25;4.90;99.90
35043;DHT22;21230;51.170;17.024;2023-02-11T15:24:04;4.80;99.90
35043;DHT22;21230;51.170;17.024;2023-02-11T15:26:31;4.90;99.90
35043;DHT22;21230;51.170;17.024;2023-02-11T15:28:57;4.80;99.90
35043;DHT22;21230;51.170;17.024;2023-02-11T15:31:26;4.80;99.90
35043;DHT22;21230;51.170;17.024;2023-02-11T15:33:53;4.80;99.90
35043;DHT22;21230;51.170;17.024;2023-02-11T15:36:22;4.80;99.90
35043;DHT22;21230;51.170;17.024;2023-02-11T15:39:18;4.80;99.90
35043;DHT22;21230;51.170;17.024;2023-02-11T15:41:45;4.80;99.90
35043;DHT22;21230;51.170;17.024;2023-02-11T15:44:31;4.80;99.90
35043;DHT22;21230;51.170;17.024;2023-02-11T15:46:58;4.80;99.90
35043;DHT22;21230;51.170;17.024;2023-02-11T15:49:26;4.80;99.90
35043;DHT22;21230;51.170;17.024;2023-02-11T15:51:55;4.70;99.90
35043;DHT22;21230;51.170;17.024;2023-02-11T15:54:25;4.70;99.90
35043;DHT22;21230;51.170;17.024;2023-02-11T15:56:53;4.80;99.90
35043;DHT22;21230;51.170;17.024;2023-02-11T15:59:34;4.80;99.90
35043;DHT22;21230;51.170;17.024;2023-02-11T16:02:19;4.80;99.90
35043;DHT22;21230;51.170;17.024;2023-02-11T16:04:58;4.80;99.90
35043;DHT22;21230;51.170;17.024;2023-02-11T16:07:48;4.80;99.90
35043;DHT22;21230;51.170;17.024;2023-02-11T16:10:29;4.80;99.90
35043;DHT22;21230;51.170;17.024;2023-02-11T16:13:17;4.80;99.90
35043;DHT22;21230;51.170;17.024;2023-02-11T16:15:48;4.80;99.90
35043;DHT22;21230;51.170;17.024;2023-02-11T16:18:32;4.80;99.90
35043;DHT22;21230;51.170;17.024;2023-02-11T16:21:00;4.80;99.90
35043;DHT22;21230;51.170;17.024;2023-02-11T16:23:39;4.80;99.90
35043;DHT22;21230;51.170;17.024;2023-02-11T16:26:35;4.80;99.90
35043;DHT22;21230;51.170;17.024;2023-02-11T16:29:18;4.80;99.90
35043;DHT22;21230;51.170;17.024;2023-02-11T16:31:49;4.90;99.90
35043;DHT22;21230;51.170;17.024;2023-02-11T16:34:22;4.90;99.90
35043;DHT22;21230;51.170;17.024;2023-02-11T16:36:49;4.90;99.90
35043;DHT22;21230;51.170;17.024;2023-02-11T16:39:18;4.90;99.90
35043;DHT22;21230;51.170;17.024;2023-02-11T16:41:50;4.90;99.90
35043;DHT22;21230;51.170;17.024;2023-02-11T16:44:17;4.90;99.90
35043;DHT22;21230;51.170;17.024;2023-02-11T16:46:44;4.90;99.90
35043;DHT22;21230;51.170;17.024;2023-02-11T16:49:25;4.90;99.90
35043;DHT22;21230;51.170;17.024;2023-02-11T16:51:57;5.00;99.90
35043;DHT22;21230;51.170;17.024;2023-02-11T16:54:28;4.90;99.90
35043;DHT22;21230;51.170;17.024;2023-02-11T16:56:55;5.00;99.90
35043;DHT22;21230;51.170;17.024;2023-02-11T16:59:22;4.90;99.90
35043;DHT22;21230;51.170;17.024;2023-02-11T17:01:49;4.90;99.90
35043;DHT22;21230;51.170;17.024;2023-02-11T17:04:20;5.00;99.90
35043;DHT22;21230;51.170;17.024;2023-02-11T17:06:46;5.00;99.90
35043;DHT22;21230;51.170;17.024;2023-02-11T17:09:23;5.00;99.90
35043;DHT22;21230;51.170;17.024;2023-02-11T17:11:50;5.00;99.90
35043;DHT22;21230;51.170;17.024;2023-02-11T17:14:18;5.00;99.90
35043;DHT22;21230;51.170;17.024;2023-02-11T17:16:46;5.00;99.90
35043;DHT22;21230;51.170;17.024;2023-02-11T17:19:16;5.00;99.90
35043;DHT22;21230;51.170;17.024;2023-02-11T17:21:48;5.00;99.90
35043;DHT22;21230;51.170;17.024;2023-02-11T17:24:15;5.00;99.90
35043;DHT22;21230;51.170;17.024;2023-02-11T17:26:43;5.10;99.90
35043;DHT22;21230;51.170;17.024;2023-02-11T17:29:16;5.00;99.90
35043;DHT22;21230;51.170;17.024;2023-02-11T17:31:44;5.00;99.90
35043;DHT22;21230;51.170;17.024;2023-02-11T17:34:11;5.00;99.90
35043;DHT22;21230;51.170;17.024;2023-02-11T17:36:38;5.00;99.90
35043;DHT22;21230;51.170;17.024;2023-02-11T17:39:06;5.00;99.90
35043;DHT22;21230;51.170;17.024;2023-02-11T17:41:36;5.00;99.90
35043;DHT22;21230;51.170;17.024;2023-02-11T17:44:03;5.00;99.90
35043;DHT22;21230;51.170;17.024;2023-02-11T17:46:30;5.00;99.90
35043;DHT22;21230;51.170;17.024;2023-02-11T17:48:57;5.00;99.90
35043;DHT22;21230;51.170;17.024;2023-02-11T17:51:31;5.00;99.90
35043;DHT22;21230;51.170;17.024;2023-02-11T17:54:01;5.00;99.90
35043;DHT22;21230;51.170;17.024;2023-02-11T17:56:30;5.00;99.90
35043;DHT22;21230;51.170;17.024;2023-02-11T17:58:56;5.00;99.90
35043;DHT22;21230;51.170;17.024;2023-02-11T18:01:26;5.00;99.90
35043;DHT22;21230;51.170;17.024;2023-02-11T18:03:54;5.00;99.90
35043;DHT22;21230;51.170;17.024;2023-02-11T18:06:20;5.00;99.90
35043;DHT22;21230;51.170;17.024;2023-02-11T18:08:48;5.00;99.90
35043;DHT22;21230;51.170;17.024;2023-02-11T18:11:18;5.00;99.90